sensor_id;sensor_type;location;lat;lon;timestamp;temperature;humidity
20422;DHT22;10370;53.102;18.034;2023-02-15T00:01:08;-1.90;99.90
20422;DHT22;10370;53.102;18.034;2023-02-15T00:06:54;-1.90;99.90
20422;DHT22;10370;53.102;18.034;2023-02-15T00:12:37;-2.00;99.90
20422;DHT22;10370;53.102;18.034;2023-02-15T00:18:27;-1.90;99.90
20422;DHT22;10370;53.102;18.034;2023-02-15T00:23:55;-1.80;99.90
20422;DHT22;10370;53.102;18.034;2023-02-15T00:29:21;-1.70;99.90
20422;DHT22;10370;53.102;18.034;2023-02-15T00:34:47;-1.60;99.90
20422;DHT22;10370;53.102;18.034;2023-02-15T00:40:32;-1.60;99.90
20422;DHT22;10370;53.102;18.034;2023-02-15T00:45:57;-1.50;99.90
20422;DHT22;10370;53.102;18.034;2023-02-15T00:51:28;-1.50;99.90
20422;DHT22;10370;53.102;18.034;2023-02-15T00:56:55;-1.40;99.90
20422;DHT22;10370;53.102;18.034;2023-02-15T01:02:41;-1.40;99.90
20422;DHT22;10370;53.102;18.034;2023-02-15T01:08:07;-1.40;99.90
20422;DHT22;10370;53.102;18.034;2023-02-15T01:13:33;-1.40;99.90
20422;DHT22;10370;53.102;18.034;2023-02-15T01:19:18;-1.40;99.90
20422;DHT22;10370;53.102;18.034;2023-02-15T01:25:05;-1.50;99.90
20422;DHT22;10370;53.102;18.034;2023-02-15T01:30:51;-1.60;99.90
20422;DHT22;10370;53.102;18.034;2023-02-15T01:36:36;-1.70;99.90
20422;DHT22;10370;53.102;18.034;2023-02-15T01:42:10;-1.70;99.90
20422;DHT22;10370;53.102;18.034;2023-02-15T01:47:45;-1.80;99.90
20422;DHT22;10370;53.102;18.034;2023-02-15T01:53:34;-1.90;99.90
20422;DHT22;10370;53.102;18.034;2023-02-15T01:59:22;-2.00;99.90
20422;DHT22;10370;53.102;18.034;2023-02-15T02:04:49;-2.10;99.90
20422;DHT22;10370;53.102;18.034;2023-02-15T02:10:20;-2.00;99.90
20422;DHT22;10370;53.102;18.034;2023-02-15T02:16:12;-1.90;99.90
20422;DHT22;10370;53.102;18.034;2023-02-15T02:39:09;-1.80;99.90
20422;DHT22;10370;53.102;18.034;2023-02-15T02:45:18;-1.80;99.90
20422;DHT22;10370;53.102;18.034;2023-02-15T02:50:45;-1.80;99.90
20422;DHT22;10370;53.102;18.034;2023-02-15T02:56:37;-1.70;99.90
20422;DHT22;10370;53.102;18.034;2023-02-15T03:02:16;-1.60;99.90
20422;DHT22;10370;53.102;18.034;2023-02-15T03:07:43;-1.50;99.90
20422;DHT22;10370;53.102;18.034;2023-02-15T03:13:11;-1.40;99.90
20422;DHT22;10370;53.102;18.034;2023-02-15T03:19:01;-1.40;99.90
20422;DHT22;10370;53.102;18.034;2023-02-15T03:24:34;-1.30;99.90
20422;DHT22;10370;53.102;18.034;2023-02-15T03:30:02;-1.20;99.90
20422;DHT22;10370;53.102;18.034;2023-02-15T03:35:36;-1.10;99.90
20422;DHT22;10370;53.102;18.034;2023-02-15T03:41:04;-1.10;99.90
20422;DHT22;10370;53.102;18.034;2023-02-15T03:46:42;-1.00;99.90
20422;DHT22;10370;53.102;18.034;2023-02-15T03:52:10;-0.90;99.90
20422;DHT22;10370;53.102;18.034;2023-02-15T03:57:37;-0.90;99.90
20422;DHT22;10370;53.102;18.034;2023-02-15T04:03:45;-0.90;99.90
20422;DHT22;10370;53.102;18.034;2023-02-15T04:09:10;-0.80;99.90
20422;DHT22;10370;53.102;18.034;2023-02-15T04:14:54;-0.70;99.90
20422;DHT22;10370;53.102;18.034;2023-02-15T04:20:42;-0.70;99.90
20422;DHT22;10370;53.102;18.034;2023-02-15T04:26:26;-0.70;99.90
20422;DHT22;10370;53.102;18.034;2023-02-15T04:31:53;-0.50;99.90
20422;DHT22;10370;53.102;18.034;2023-02-15T04:37:40;-0.50;99.90
20422;DHT22;10370;53.102;18.034;2023-02-15T04:43:26;-0.50;99.90
20422;DHT22;10370;53.102;18.034;2023-02-15T04:48:52;-0.50;99.90
20422;DHT22;10370;53.102;18.034;2023-02-15T04:54:22;-0.50;99.90
20422;DHT22;10370;53.102;18.034;2023-02-15T04:59:47;-0.50;99.90
20422;DHT22;10370;53.102;18.034;2023-02-15T05:05:13;-0.50;99.90
20422;DHT22;10370;53.102;18.034;2023-02-15T05:10:40;-0.40;99.90
20422;DHT22;10370;53.102;18.034;2023-02-15T05:16:08;-0.40;99.90
20422;DHT22;10370;53.102;18.034;2023-02-15T05:21:33;-0.30;99.90
20422;DHT22;10370;53.102;18.034;2023-02-15T05:27:00;-0.40;99.90
20422;DHT22;10370;53.102;18.034;2023-02-15T05:32:48;-0.40;99.90
20422;DHT22;10370;53.102;18.034;2023-02-15T05:38:15;-0.30;99.90
20422;DHT22;10370;53.102;18.034;2023-02-15T05:43:40;-0.30;99.90
20422;DHT22;10370;53.102;18.034;2023-02-15T05:49:04;-0.30;99.90
20422;DHT22;10370;53.102;18.034;2023-02-15T05:54:26;-0.30;99.90
20422;DHT22;10370;53.102;18.034;2023-02-15T05:59:49;-0.20;99.90
20422;DHT22;10370;53.102;18.034;2023-02-15T06:05:34;-0.20;99.90
20422;DHT22;10370;53.102;18.034;2023-02-15T06:11:19;-0.20;99.90
20422;DHT22;10370;53.102;18.034;2023-02-15T06:17:05;-0.10;99.90
20422;DHT22;10370;53.102;18.034;2023-02-15T06:22:49;-0.10;99.90
20422;DHT22;10370;53.102;18.034;2023-02-15T06:28:12;0.00;99.90
20422;DHT22;10370;53.102;18.034;2023-02-15T06:34:02;0.00;99.90
20422;DHT22;10370;53.102;18.034;2023-02-15T06:40:32;0.10;99.90
20422;DHT22;10370;53.102;18.034;2023-02-15T06:46:34;0.10;99.90
20422;DHT22;10370;53.102;18.034;2023-02-15T06:52:17;0.20;99.90
20422;DHT22;10370;53.102;18.034;2023-02-15T06:57:45;0.30;99.90
20422;DHT22;10370;53.102;18.034;2023-02-15T07:03:39;0.30;99.90
20422;DHT22;10370;53.102;18.034;2023-02-15T07:14:25;0.50;99.90
20422;DHT22;10370;53.102;18.034;2023-02-15T07:19:48;0.60;99.90
20422;DHT22;10370;53.102;18.034;2023-02-15T07:25:11;0.60;99.90
20422;DHT22;10370;53.102;18.034;2023-02-15T07:30:33;0.70;99.90
20422;DHT22;10370;53.102;18.034;2023-02-15T07:35:58;0.70;99.90
20422;DHT22;10370;53.102;18.034;2023-02-15T07:41:19;0.80;99.90
20422;DHT22;10370;53.102;18.034;2023-02-15T07:46:42;0.80;99.90
20422;DHT22;10370;53.102;18.034;2023-02-15T07:52:11;1.00;99.90
20422;DHT22;10370;53.102;18.034;2023-02-15T07:57:35;1.10;99.90
20422;DHT22;10370;53.102;18.034;2023-02-15T08:02:58;1.20;99.90
20422;DHT22;10370;53.102;18.034;2023-02-15T08:08:37;1.40;99.90
20422;DHT22;10370;53.102;18.034;2023-02-15T08:19:29;1.70;99.90
20422;DHT22;10370;53.102;18.034;2023-02-15T08:25:04;1.80;99.90
20422;DHT22;10370;53.102;18.034;2023-02-15T08:30:40;2.00;99.90
20422;DHT22;10370;53.102;18.034;2023-02-15T08:36:16;2.20;99.90
20422;DHT22;10370;53.102;18.034;2023-02-15T08:42:13;2.30;99.90
20422;DHT22;10370;53.102;18.034;2023-02-15T08:47:57;2.50;99.90
20422;DHT22;10370;53.102;18.034;2023-02-15T08:53:42;2.70;99.90
20422;DHT22;10370;53.102;18.034;2023-02-15T08:59:21;2.80;99.90
20422;DHT22;10370;53.102;18.034;2023-02-15T09:17:15;3.30;99.90
20422;DHT22;10370;53.102;18.034;2023-02-15T09:22:38;3.40;99.90
20422;DHT22;10370;53.102;18.034;2023-02-15T09:27:59;3.50;99.90
20422;DHT22;10370;53.102;18.034;2023-02-15T09:33:22;3.60;99.90
20422;DHT22;10370;53.102;18.034;2023-02-15T09:38:58;3.60;99.90
20422;DHT22;10370;53.102;18.034;2023-02-15T10:01:54;3.60;99.90
20422;DHT22;10370;53.102;18.034;2023-02-15T10:13:13;3.70;99.90
20422;DHT22;10370;53.102;18.034;2023-02-15T10:18:51;3.80;99.90
20422;DHT22;10370;53.102;18.034;2023-02-15T10:24:35;3.70;99.90
20422;DHT22;10370;53.102;18.034;2023-02-15T10:30:10;3.60;99.90
20422;DHT22;10370;53.102;18.034;2023-02-15T10:36:25;3.70;99.90
20422;DHT22;10370;53.102;18.034;2023-02-15T10:41:41;3.60;99.90
20422;DHT22;10370;53.102;18.034;2023-02-15T11:09:46;3.60;99.90
20422;DHT22;10370;53.102;18.034;2023-02-15T11:21:09;3.70;99.90
20422;DHT22;10370;53.102;18.034;2023-02-15T11:26:39;3.80;99.90
20422;DHT22;10370;53.102;18.034;2023-02-15T11:32:32;4.00;99.90
20422;DHT22;10370;53.102;18.034;2023-02-15T11:38:15;4.20;99.90
20422;DHT22;10370;53.102;18.034;2023-02-15T11:43:46;4.20;99.90
20422;DHT22;10370;53.102;18.034;2023-02-15T11:49:32;4.30;99.90
20422;DHT22;10370;53.102;18.034;2023-02-15T11:55:23;4.30;99.90
20422;DHT22;10370;53.102;18.034;2023-02-15T12:00:52;4.70;99.90
20422;DHT22;10370;53.102;18.034;2023-02-15T12:06:44;4.20;99.90
20422;DHT22;10370;53.102;18.034;2023-02-15T12:12:35;4.30;99.90
20422;DHT22;10370;53.102;18.034;2023-02-15T12:18:43;4.60;99.90
20422;DHT22;10370;53.102;18.034;2023-02-15T12:24:37;4.40;99.90
20422;DHT22;10370;53.102;18.034;2023-02-15T12:30:35;4.30;99.90
20422;DHT22;10370;53.102;18.034;2023-02-15T12:36:29;4.20;99.90
20422;DHT22;10370;53.102;18.034;2023-02-15T12:42:17;4.00;99.90
20422;DHT22;10370;53.102;18.034;2023-02-15T12:48:15;4.10;99.90
20422;DHT22;10370;53.102;18.034;2023-02-15T12:55:01;3.90;99.90
20422;DHT22;10370;53.102;18.034;2023-02-15T13:05:40;3.80;99.90
20422;DHT22;10370;53.102;18.034;2023-02-15T13:11:10;4.00;99.90
20422;DHT22;10370;53.102;18.034;2023-02-15T13:17:01;4.10;99.90
20422;DHT22;10370;53.102;18.034;2023-02-15T13:22:57;4.20;99.90
20422;DHT22;10370;53.102;18.034;2023-02-15T13:28:50;4.30;99.90
20422;DHT22;10370;53.102;18.034;2023-02-15T13:34:31;4.20;99.90
20422;DHT22;10370;53.102;18.034;2023-02-15T13:52:19;4.10;99.90
20422;DHT22;10370;53.102;18.034;2023-02-15T13:58:04;4.30;99.90
20422;DHT22;10370;53.102;18.034;2023-02-15T14:09:26;4.20;99.90
20422;DHT22;10370;53.102;18.034;2023-02-15T14:31:57;4.20;99.90
20422;DHT22;10370;53.102;18.034;2023-02-15T15:00:30;3.80;99.90
20422;DHT22;10370;53.102;18.034;2023-02-15T15:05:55;3.80;99.90
20422;DHT22;10370;53.102;18.034;2023-02-15T15:17:05;3.70;99.90
20422;DHT22;10370;53.102;18.034;2023-02-15T15:22:30;3.70;99.90
20422;DHT22;10370;53.102;18.034;2023-02-15T15:27:56;3.60;99.90
20422;DHT22;10370;53.102;18.034;2023-02-15T15:33:39;3.60;99.90
20422;DHT22;10370;53.102;18.034;2023-02-15T15:50:31;3.40;99.90
20422;DHT22;10370;53.102;18.034;2023-02-15T15:56:05;3.20;99.90
20422;DHT22;10370;53.102;18.034;2023-02-15T16:01:30;3.00;99.90
20422;DHT22;10370;53.102;18.034;2023-02-15T16:06:56;2.80;99.90
20422;DHT22;10370;53.102;18.034;2023-02-15T16:12:23;2.70;99.90
20422;DHT22;10370;53.102;18.034;2023-02-15T16:17:54;2.60;99.90
20422;DHT22;10370;53.102;18.034;2023-02-15T16:28:59;2.30;99.90
20422;DHT22;10370;53.102;18.034;2023-02-15T16:34:21;2.30;99.90
20422;DHT22;10370;53.102;18.034;2023-02-15T16:39:50;2.20;99.90
20422;DHT22;10370;53.102;18.034;2023-02-15T16:45:16;2.20;99.90
20422;DHT22;10370;53.102;18.034;2023-02-15T16:50:38;2.10;99.90
20422;DHT22;10370;53.102;18.034;2023-02-15T16:56:03;2.00;99.90
20422;DHT22;10370;53.102;18.034;2023-02-15T17:01:30;2.00;99.90
20422;DHT22;10370;53.102;18.034;2023-02-15T17:07:15;1.90;99.90
20422;DHT22;10370;53.102;18.034;2023-02-15T17:12:52;1.80;99.90
20422;DHT22;10370;53.102;18.034;2023-02-15T17:18:22;1.80;99.90
20422;DHT22;10370;53.102;18.034;2023-02-15T17:23:47;1.80;99.90
20422;DHT22;10370;53.102;18.034;2023-02-15T17:29:34;1.80;99.90
20422;DHT22;10370;53.102;18.034;2023-02-15T17:35:27;1.80;99.90
20422;DHT22;10370;53.102;18.034;2023-02-15T17:40:52;1.70;99.90
20422;DHT22;10370;53.102;18.034;2023-02-15T17:46:18;1.70;99.90
20422;DHT22;10370;53.102;18.034;2023-02-15T17:51:46;1.70;99.90
20422;DHT22;10370;53.102;18.034;2023-02-15T17:57:14;1.70;99.90
20422;DHT22;10370;53.102;18.034;2023-02-15T18:02:40;1.60;99.90
20422;DHT22;10370;53.102;18.034;2023-02-15T18:08:26;1.60;99.90
20422;DHT22;10370;53.102;18.034;2023-02-15T18:14:10;1.60;99.90
20422;DHT22;10370;53.102;18.034;2023-02-15T18:19:36;1.50;99.90
20422;DHT22;10370;53.102;18.034;2023-02-15T18:25:01;1.50;99.90
20422;DHT22;10370;53.102;18.034;2023-02-15T18:30:27;1.40;99.90
20422;DHT22;10370;53.102;18.034;2023-02-15T18:35:53;1.40;99.90
20422;DHT22;10370;53.102;18.034;2023-02-15T18:41:17;1.30;99.90
20422;DHT22;10370;53.102;18.034;2023-02-15T18:46:43;1.30;99.90
20422;DHT22;10370;53.102;18.034;2023-02-15T18:52:14;1.20;99.90
20422;DHT22;10370;53.102;18.034;2023-02-15T18:57:38;1.20;99.90
20422;DHT22;10370;53.102;18.034;2023-02-15T19:03:08;1.30;99.90
20422;DHT22;10370;53.102;18.034;2023-02-15T19:08:33;1.30;99.90
20422;DHT22;10370;53.102;18.034;2023-02-15T19:13:56;1.20;99.90
20422;DHT22;10370;53.102;18.034;2023-02-15T19:19:17;1.10;99.90
20422;DHT22;10370;53.102;18.034;2023-02-15T19:24:42;1.00;99.90
20422;DHT22;10370;53.102;18.034;2023-02-15T19:30:13;1.00;99.90
20422;DHT22;10370;53.102;18.034;2023-02-15T19:35:36;0.90;99.90
20422;DHT22;10370;53.102;18.034;2023-02-15T19:41:06;0.90;99.90
20422;DHT22;10370;53.102;18.034;2023-02-15T19:46:30;0.80;99.90
20422;DHT22;10370;53.102;18.034;2023-02-15T19:51:55;0.80;99.90
20422;DHT22;10370;53.102;18.034;2023-02-15T19:57:20;0.70;99.90
20422;DHT22;10370;53.102;18.034;2023-02-15T20:02:46;0.70;99.90
20422;DHT22;10370;53.102;18.034;2023-02-15T20:08:17;0.70;99.90
20422;DHT22;10370;53.102;18.034;2023-02-15T20:13:43;0.60;99.90
20422;DHT22;10370;53.102;18.034;2023-02-15T20:19:09;0.50;99.90
20422;DHT22;10370;53.102;18.034;2023-02-15T20:24:34;0.50;99.90
20422;DHT22;10370;53.102;18.034;2023-02-15T20:29:59;0.50;99.90
20422;DHT22;10370;53.102;18.034;2023-02-15T20:35:23;0.40;99.90
20422;DHT22;10370;53.102;18.034;2023-02-15T20:40:49;0.40;99.90
20422;DHT22;10370;53.102;18.034;2023-02-15T20:46:33;0.50;99.90
20422;DHT22;10370;53.102;18.034;2023-02-15T20:52:19;0.50;99.90
20422;DHT22;10370;53.102;18.034;2023-02-15T20:57:42;0.50;99.90
20422;DHT22;10370;53.102;18.034;2023-02-15T21:03:10;0.50;99.90
20422;DHT22;10370;53.102;18.034;2023-02-15T21:08:36;0.50;99.90
20422;DHT22;10370;53.102;18.034;2023-02-15T21:14:01;0.50;99.90
20422;DHT22;10370;53.102;18.034;2023-02-15T21:19:28;0.50;99.90
20422;DHT22;10370;53.102;18.034;2023-02-15T21:24:53;0.40;99.90
20422;DHT22;10370;53.102;18.034;2023-02-15T21:30:19;0.30;99.90
20422;DHT22;10370;53.102;18.034;2023-02-15T21:35:46;0.30;99.90
20422;DHT22;10370;53.102;18.034;2023-02-15T21:41:23;0.30;99.90
20422;DHT22;10370;53.102;18.034;2023-02-15T21:47:20;0.30;99.90
20422;DHT22;10370;53.102;18.034;2023-02-15T21:53:05;0.30;99.90
20422;DHT22;10370;53.102;18.034;2023-02-15T21:58:32;0.30;99.90
20422;DHT22;10370;53.102;18.034;2023-02-15T22:03:57;0.30;99.90
20422;DHT22;10370;53.102;18.034;2023-02-15T22:09:24;0.20;99.90
20422;DHT22;10370;53.102;18.034;2023-02-15T22:14:57;0.20;99.90
20422;DHT22;10370;53.102;18.034;2023-02-15T22:20:23;0.10;99.90
20422;DHT22;10370;53.102;18.034;2023-02-15T22:25:57;0.10;99.90
20422;DHT22;10370;53.102;18.034;2023-02-15T22:31:23;0.10;99.90
20422;DHT22;10370;53.102;18.034;2023-02-15T22:36:48;0.10;99.90
20422;DHT22;10370;53.102;18.034;2023-02-15T22:42:22;0.10;99.90
20422;DHT22;10370;53.102;18.034;2023-02-15T22:47:50;0.10;99.90
20422;DHT22;10370;53.102;18.034;2023-02-15T22:53:14;0.00;99.90
20422;DHT22;10370;53.102;18.034;2023-02-15T22:58:36;0.00;99.90
20422;DHT22;10370;53.102;18.034;2023-02-15T23:03:59;0.00;99.90
20422;DHT22;10370;53.102;18.034;2023-02-15T23:09:25;-0.10;99.90
20422;DHT22;10370;53.102;18.034;2023-02-15T23:14:51;-0.10;99.90
20422;DHT22;10370;53.102;18.034;2023-02-15T23:20:16;-0.10;99.90
20422;DHT22;10370;53.102;18.034;2023-02-15T23:25:41;-0.10;99.90
20422;DHT22;10370;53.102;18.034;2023-02-15T23:31:22;-0.10;99.90
20422;DHT22;10370;53.102;18.034;2023-02-15T23:36:48;-0.20;99.90
20422;DHT22;10370;53.102;18.034;2023-02-15T23:42:29;-0.10;99.90
20422;DHT22;10370;53.102;18.034;2023-02-15T23:47:55;-0.20;99.90
20422;DHT22;10370;53.102;18.034;2023-02-15T23:53:38;-0.20;99.90
20422;DHT22;10370;53.102;18.034;2023-02-15T23:59:04;-0.30;99.90
